地図

経路データ

SID SEASON NUMBER BASIN SUBBASIN NAME ISO_TIME NATURE LAT LON WMO_WIND WMO_PRES WMO_AGENCY TRACK_TYPE DIST2LAND LANDFALL IFLAG USA_AGENCY USA_ATCF_ID USA_LAT USA_LON USA_RECORD USA_STATUS USA_WIND USA_PRES USA_SSHS USA_R34_NE USA_R34_SE USA_R34_SW USA_R34_NW USA_R50_NE USA_R50_SE USA_R50_SW USA_R50_NW USA_R64_NE USA_R64_SE USA_R64_SW USA_R64_NW USA_POCI USA_ROCI USA_RMW USA_EYE TOKYO_LAT TOKYO_LON TOKYO_GRADE TOKYO_WIND TOKYO_PRES TOKYO_R50_DIR TOKYO_R50_LONG TOKYO_R50_SHORT TOKYO_R30_DIR TOKYO_R30_LONG TOKYO_R30_SHORT TOKYO_LAND CMA_LAT CMA_LON CMA_CAT CMA_WIND CMA_PRES HKO_LAT HKO_LON HKO_CAT HKO_WIND HKO_PRES NEWDELHI_LAT NEWDELHI_LON NEWDELHI_GRADE NEWDELHI_WIND NEWDELHI_PRES NEWDELHI_CI NEWDELHI_DP NEWDELHI_POCI REUNION_LAT REUNION_LON REUNION_TYPE REUNION_WIND REUNION_PRES REUNION_TNUM REUNION_CI REUNION_RMW REUNION_R34_NE REUNION_R34_SE REUNION_R34_SW REUNION_R34_NW REUNION_R50_NE REUNION_R50_SE REUNION_R50_SW REUNION_R50_NW REUNION_R64_NE REUNION_R64_SE REUNION_R64_SW REUNION_R64_NW BOM_LAT BOM_LON BOM_TYPE BOM_WIND BOM_PRES BOM_TNUM BOM_CI BOM_RMW BOM_R34_NE BOM_R34_SE BOM_R34_SW BOM_R34_NW BOM_R50_NE BOM_R50_SE BOM_R50_SW BOM_R50_NW BOM_R64_NE BOM_R64_SE BOM_R64_SW BOM_R64_NW BOM_ROCI BOM_POCI BOM_EYE BOM_POS_METHOD BOM_PRES_METHOD NADI_LAT NADI_LON NADI_CAT NADI_WIND NADI_PRES WELLINGTON_LAT WELLINGTON_LON WELLINGTON_WIND WELLINGTON_PRES DS824_LAT DS824_LON DS824_STAGE DS824_WIND DS824_PRES TD9636_LAT TD9636_LON TD9636_STAGE TD9636_WIND TD9636_PRES TD9635_LAT TD9635_LON TD9635_WIND TD9635_PRES TD9635_ROCI NEUMANN_LAT NEUMANN_LON NEUMANN_CLASS NEUMANN_WIND NEUMANN_PRES MLC_LAT MLC_LON MLC_CLASS MLC_WIND MLC_PRES USA_GUST BOM_GUST BOM_GUST_PER REUNION_GUST REUNION_GUST_PER USA_SEAHGT USA_SEARAD_NE USA_SEARAD_SE USA_SEARAD_SW USA_SEARAD_NW STORM_SPEED STORM_DIR
1994078S06184 1994 22 SP MM THOMAS:TOMAS 1994-03-19 00:00:00 TS -6.40000 184.400 main 852 835 O___________O_ jtwc_sh SH241994 -6.40000 -175.600 15 -1 -6.40000 -175.600 TC 15 6 216
1994078S06184 1994 22 SP MM THOMAS:TOMAS 1994-03-19 03:00:00 TS -6.65751 184.210 main 829 818 P___________P_ SH241994 -6.65751 -175.790 15 -1 -6.65751 -175.790 TC 15 6 219
1994078S06184 1994 22 SP MM THOMAS:TOMAS 1994-03-19 06:00:00 TS -6.90000 184.000 main 818 807 O___________O_ jtwc_sh SH241994 -6.90000 -176.000 15 -1 -6.90000 -176.000 TC 15 6 225
1994078S06184 1994 22 SP MM THOMAS:TOMAS 1994-03-19 09:00:00 TS -7.11500 183.757 main 807 798 P___________P_ SH241994 -7.11500 -176.243 17 -1 -7.11500 -176.243 TC 17 6 231
1994078S06184 1994 22 SP MM THOMAS:TOMAS 1994-03-19 12:00:00 TS -7.30000 183.500 main 803 795 O___________O_ jtwc_sh SH241994 -7.30000 -176.500 20 -1 -7.30000 -176.500 TC 20 6 234
1994078S06184 1994 22 SP MM THOMAS:TOMAS 1994-03-19 15:00:00 TS -7.46496 183.265 main 795 795 P___________P_ SH241994 -7.46496 -176.735 20 -1 -7.46496 -176.735 TC 20 6 239
1994078S06184 1994 22 SP MM THOMAS:TOMAS 1994-03-19 18:00:00 TS -7.60000 183.000 main 804 801 O___________O_ jtwc_sh SH241994 -7.60000 -177.000 20 -1 -7.60000 -177.000 TC 20 6 247
1994078S06184 1994 22 SP MM THOMAS:TOMAS 1994-03-19 21:00:00 TS -7.71498 182.672 main 814 814 P___________P_ SH241994 -7.71498 -177.328 20 -1 -7.71498 -177.328 TC 20 7 254
1994078S06184 1994 22 SP MM THOMAS:TOMAS 1994-03-20 00:00:00 TS -7.80000 182.300 main 833 833 O___________O_ jtwc_sh SH241994 -7.80000 -177.700 20 -1 -7.80000 -177.700 TC 20 8 258
1994078S06184 1994 22 SP MM THOMAS:TOMAS 1994-03-20 03:00:00 TS -7.87244 181.923 main 853 836 P___________P_ SH241994 -7.87244 -178.077 22 -1 -7.87244 -178.077 TC 22 8 230
1994078S06184 1994 22 SP MM THOMAS:TOMAS 1994-03-20 06:00:00 TS -8.32000 181.680 nadi main 836 836 O_______O___O_ jtwc_sh SH241994 -7.90000 -178.500 25 -1 -10.0000 -177.600 -10.0000 -177.600 25 999 -7.90000 -178.500 TC 25 9 224
1994078S06184 1994 22 SP MM THOMAS:TOMAS 1994-03-20 09:00:00 TS -8.50664 181.314 main 853 853 P_______P___P_ SH241994 -7.87990 -178.962 25 -1 -9.76013 -178.133 -9.76013 -178.133 25 999 -7.87990 -178.962 TC 25 9 256
1994078S06184 1994 22 SP MM THOMAS:TOMAS 1994-03-20 12:00:00 TS -8.52857 180.843 nadi main 867 863 O_______O___O_ jtwc_sh SH241994 -7.80000 -179.500 25 -1 -9.50000 -178.700 -9.50000 -178.700 25 999 -7.80000 -179.500 TC 25 10 274
1994078S06184 1994 22 SP MM THOMAS:TOMAS 1994-03-20 15:00:00 TS -8.43124 180.265 main 874 873 P_______P___P_ SH241994 -7.64256 179.857 25 -1 -9.21992 -179.328 -9.21992 -179.328 25 999 -7.64256 179.857 TC 25 13 283
1994078S06184 1994 22 SP MM THOMAS:TOMAS 1994-03-20 18:00:00 TS -8.25000 179.600 nadi main 896 896 O_______O___O_ jtwc_sh SH241994 -7.50000 179.200 25 -1 -9.00000 180.000 -9.00000 180.000 25 999 -7.50000 179.200 TC 25 13 282
1994078S06184 1994 22 SP MM THOMAS:TOMAS 1994-03-20 21:00:00 TS -8.16497 178.956 main 900 900 P_______P___P_ SH241994 -7.42487 178.635 25 -1 -8.90506 179.278 -8.90506 179.278 25 999 -7.42487 178.635 TC 25 12 272
1994078S06184 1994 22 SP MM THOMAS:TOMAS 1994-03-21 00:00:00 TS -8.20000 178.350 nadi main 908 903 O_______O___O_ jtwc_sh SH241994 -7.50000 178.100 25 -1 -8.90000 178.600 -8.90000 178.600 25 999 -7.50000 178.100 TC 25 11 261
1994078S06184 1994 22 SP MM THOMAS:TOMAS 1994-03-21 03:00:00 TS -8.33982 177.821 main 910 890 P_______P___P_ SH241994 -7.75988 177.565 25 -1 -8.91976 178.077 -8.91976 178.077 25 999 -7.75988 177.565 TC 25 11 249
1994078S06184 1994 22 SP MM THOMAS:TOMAS 1994-03-21 06:00:00 TS -8.60000 177.300 nadi main 893 878 O_______O___O_ jtwc_sh SH241994 -8.20000 177.000 25 -1 -9.00000 177.600 -9.00000 177.600 25 999 -8.20000 177.000 TC 25 12 241
1994078S06184 1994 22 SP MM THOMAS:TOMAS 1994-03-21 09:00:00 TS -8.92608 176.737 main 882 861 P_______P___P_ SH241994 -8.75486 176.387 25 -1 -9.09730 177.087 -9.09730 177.087 25 998 -8.75486 176.387 TC 25 14 238
1994078S06184 1994 22 SP MM THOMAS:TOMAS 1994-03-21 12:00:00 TS -9.35000 176.100 nadi main 865 838 O_______O___O_ jtwc_sh SH241994 -9.40000 175.700 25 -1 -9.30000 176.500 -9.30000 176.500 25 998 -9.40000 175.700 TC 25 16 235
1994078S06184 1994 22 SP MM THOMAS:TOMAS 1994-03-21 15:00:00 TS -9.84072 175.411 main 842 820 P_______P___P_ SH241994 -10.0649 174.930 27 -1 -9.61654 175.891 -9.61654 175.891 25 998 -10.0649 174.930 TC 27 19 235
1994078S06184 1994 22 SP MM THOMAS:TOMAS 1994-03-21 18:00:00 TS -10.4000 174.550 nadi main 821 816 O_______O___O_ jtwc_sh SH241994 -10.7000 174.100 30 -1 -10.1000 175.000 -10.1000 175.000 25 998 -10.7000 174.100 TC 30 24 240
1994078S06184 1994 22 SP MM THOMAS:TOMAS 1994-03-21 21:00:00 TS -11.0615 173.298 main 801 670 P_______P___P_ SH241994 -11.2753 173.183 30 -1 -10.8477 173.413 -10.8477 173.413 27 997 -11.2753 173.183 TC 30 26 243
1994078S06184 1994 22 SP MM THOMAS:TOMAS 1994-03-22 00:00:00 TS -11.6000 172.200 nadi main 670 622 O_______O___O_ jtwc_sh SH241994 -11.7000 172.400 30 -1 -11.5000 172.000 -11.5000 172.000 30 997 -11.7000 172.400 TC 30 16 244
1994078S06184 1994 22 SP MM THOMAS:TOMAS 1994-03-22 03:00:00 TS -11.7841 171.799 main 622 613 P_______P___P_ SH241994 -11.8946 171.960 32 -1 -11.6736 171.639 -11.6736 171.639 30 997 -11.8946 171.960 TC 32 6 243
1994078S06184 1994 22 SP MM THOMAS:TOMAS 1994-03-22 06:00:00 TS -11.8500 171.700 nadi main 613 582 O_______O___O_ jtwc_sh SH241994 -12.0000 171.700 35 0 -11.7000 171.700 -11.7000 171.700 30 997 -12.0000 171.700 TC 35 4 230
1994078S06184 1994 22 SP MM THOMAS:TOMAS 1994-03-22 09:00:00 TS -12.0275 171.506 main 582 560 P_______P___P_ SH241994 -12.1699 171.427 35 0 -11.8850 171.585 -11.8850 171.585 30 997 -12.1699 171.427 TC 35 5 221
1994078S06184 1994 22 SP MM THOMAS:TOMAS 1994-03-22 12:00:00 TS -12.2500 171.350 nadi main 560 524 O_______O___O_ jtwc_sh SH241994 -12.4000 171.200 35 0 -12.1000 171.500 -12.1000 171.500 30 997 -12.4000 171.200 TC 35 5 213
1994078S06184 1994 22 SP MM THOMAS:TOMAS 1994-03-22 15:00:00 TS -12.4837 171.210 main 524 497 P_______P___P_ SH241994 -12.7125 170.978 35 0 -12.2550 171.442 -12.2550 171.442 32 996 -12.7125 170.978 TC 35 6 204
1994078S06184 1994 22 SP MM THOMAS:TOMAS 1994-03-22 18:00:00 TS -12.8000 171.100 nadi main 497 461 O_______O___O_ jtwc_sh SH241994 -13.1000 170.800 35 0 -12.5000 171.400 -12.5000 171.400 35 995 -13.1000 170.800 TC 35 8 193
1994078S06184 1994 22 SP MM THOMAS:TOMAS 1994-03-22 21:00:00 TS -13.2787 171.029 main 461 444 P_______P___P_ SH241994 -13.5800 170.670 42 0 -12.9774 171.387 -12.9774 171.387 40 991 -13.5800 170.670 TC 42 10 189
1994078S06184 1994 22 SP MM THOMAS:TOMAS 1994-03-23 00:00:00 TS -13.7500 170.950 nadi main 444 412 O_______O___O_ jtwc_sh SH241994 -14.0000 170.600 50 0 -13.5000 171.300 -13.5000 171.300 45 987 -14.0000 170.600 TC 50 8 196
1994078S06184 1994 22 SP MM THOMAS:TOMAS 1994-03-23 03:00:00 TS -14.0413 170.800 main 412 390 P_______P___P_ SH241994 -14.1875 170.585 50 0 -13.8951 171.015 -13.8951 171.015 47 986 -14.1875 170.585 TC 50 6 210
1994078S06184 1994 22 SP MM THOMAS:TOMAS 1994-03-23 06:00:00 TS -14.2500 170.650 nadi main 390 368 O_______O___O_ jtwc_sh SH241994 -14.3000 170.600 50 0 -14.2000 170.700 -14.2000 170.700 50 985 -14.3000 170.600 TC 50 5 211
1994078S06184 1994 22 SP MM THOMAS:TOMAS 1994-03-23 09:00:00 TS -14.4387 170.552 main 368 346 P_______P___P_ SH241994 -14.4700 170.593 52 0 -14.4074 170.512 -14.4074 170.512 52 982 -14.4700 170.593 TC 52 4 199
1994078S06184 1994 22 SP MM THOMAS:TOMAS 1994-03-23 12:00:00 TS -14.6500 170.500 nadi main 346 319 O_______O___O_ jtwc_sh SH241994 -14.7000 170.600 55 0 -14.6000 170.400 -14.6000 170.400 55 980 -14.7000 170.600 TC 55 5 192
1994078S06184 1994 22 SP MM THOMAS:TOMAS 1994-03-23 15:00:00 TS -14.9224 170.448 main 319 309 P_______P___P_ SH241994 -14.9975 170.613 60 0 -14.8474 170.283 -14.8474 170.283 57 977 -14.9975 170.613 TC 60 7 179
1994078S06184 1994 22 SP MM THOMAS:TOMAS 1994-03-23 18:00:00 TS -15.3000 170.500 nadi main 309 305 O_______O___O_ jtwc_sh SH241994 -15.4000 170.700 65 1 -15.2000 170.300 -15.2000 170.300 60 975 -15.4000 170.700 TC 65 10 162
1994078S06184 1994 22 SP MM THOMAS:TOMAS 1994-03-23 21:00:00 TS -15.8239 170.748 main 315 315 P_______P___P_ SH241994 -15.9351 170.935 70 1 -15.7127 170.562 -15.7127 170.562 62 972 -15.9351 170.935 TC 70 12 154
1994078S06184 1994 22 SP MM THOMAS:TOMAS 1994-03-24 00:00:00 TS -16.4000 171.050 nadi main 352 351 O_______O___O_ jtwc_sh SH241994 -16.5000 171.200 75 1 -16.3000 170.900 -16.3000 170.900 65 970 -16.5000 171.200 TC 75 12 158
1994078S06184 1994 22 SP MM THOMAS:TOMAS 1994-03-24 03:00:00 TS -16.9073 171.210 main 363 363 P_______P___P_ SH241994 -16.9573 171.335 80 1 -16.8573 171.085 -16.8573 171.085 67 967 -16.9573 171.335 TC 80 11 161
1994078S06184 1994 22 SP MM THOMAS:TOMAS 1994-03-24 06:00:00 TS -17.4000 171.400 nadi main 393 393 O_______O___O_ jtwc_sh SH241994 -17.4000 171.500 85 2 -17.4000 171.300 -17.4000 171.300 70 965 -17.4000 171.500 TC 85 11 154
1994078S06184 1994 22 SP MM THOMAS:TOMAS 1994-03-24 09:00:00 TS -17.9037 171.730 main 439 439 P_______P___P_ SH241994 -17.8925 171.812 90 2 -17.9149 171.648 -17.9149 171.648 72 962 -17.8925 171.812 TC 90 12 144
1994078S06184 1994 22 SP MM THOMAS:TOMAS 1994-03-24 12:00:00 TS -18.4000 172.150 nadi main 508 493 O_______O___O_ jtwc_sh SH241994 -18.4000 172.200 95 2 -18.4000 172.100 -18.4000 172.100 75 960 -18.4000 172.200 TC 95 13 139
1994078S06184 1994 22 SP MM THOMAS:TOMAS 1994-03-24 15:00:00 TS -18.8600 172.614 main 495 455 P_______P___P_ SH241994 -18.8924 172.578 97 3 -18.8277 172.650 -18.8277 172.650 75 960 -18.8924 172.578 TC 97 13 137
1994078S06184 1994 22 SP MM THOMAS:TOMAS 1994-03-24 18:00:00 TS -19.3500 173.100 nadi main 455 442 O_______O___O_ jtwc_sh SH241994 -19.4000 173.000 100 3 -19.3000 173.200 -19.3000 173.200 75 960 -19.4000 173.000 TC 100 14 142
1994078S06184 1994 22 SP MM THOMAS:TOMAS 1994-03-24 21:00:00 TS -19.9269 173.506 main 443 436 P_______P___P_ SH241994 -19.9272 173.456 102 3 -19.9266 173.556 -19.9266 173.556 77 957 -19.9272 173.456 TC 102 15 145
1994078S06184 1994 22 SP MM THOMAS:TOMAS 1994-03-25 00:00:00 TS -20.5500 174.000 nadi main 437 436 O_______O___O_ jtwc_sh SH241994 -20.5000 174.000 105 3 -20.6000 174.000 -20.6000 174.000 80 955 -20.5000 174.000 TC 105 17 139
1994078S06184 1994 22 SP MM THOMAS:TOMAS 1994-03-25 03:00:00 TS -21.1820 174.682 main 440 437 P_______P___P_ SH241994 -21.1342 174.611 105 3 -21.2299 174.752 -21.2299 174.752 80 955 -21.1342 174.611 TC 105 19 131
1994078S06184 1994 22 SP MM THOMAS:TOMAS 1994-03-25 06:00:00 TS -21.8000 175.550 nadi main 450 450 O_______O___O_ jtwc_sh SH241994 -21.8000 175.400 105 3 -21.8000 175.700 -21.8000 175.700 80 955 -21.8000 175.400 TC 105 21 125
1994078S06184 1994 22 SP MM THOMAS:TOMAS 1994-03-25 09:00:00 TS -22.3874 176.569 main 478 475 P_______P___P_ SH241994 -22.4878 176.439 100 3 -22.2869 176.698 -22.2869 176.698 80 955 -22.4878 176.439 TC 100 23 119
1994078S06184 1994 22 SP MM THOMAS:TOMAS 1994-03-25 12:00:00 TS -22.9000 177.700 nadi main 514 514 O_______O___O_ jtwc_sh SH241994 -23.1000 177.600 95 2 -22.7000 177.800 -22.7000 177.800 80 955 -23.1000 177.600 TC 95 23 114
1994078S06184 1994 22 SP MM THOMAS:TOMAS 1994-03-25 15:00:00 TS -23.3272 178.854 main 563 563 P_______P___P_ SH241994 -23.5742 178.701 85 2 -23.0802 179.008 -23.0802 179.008 77 957 -23.5742 178.701 TC 85 22 110
1994078S06184 1994 22 SP MM THOMAS:TOMAS 1994-03-25 18:00:00 TS -23.6500 180.000 nadi main 621 632 O_______O___O_ jtwc_sh SH241994 -23.9000 179.800 75 1 -23.4000 -179.800 -23.4000 -179.800 75 960 -23.9000 179.800 TC 75 21 105
1994078S06184 1994 22 SP MM THOMAS:TOMAS 1994-03-25 21:00:00 TS -23.8746 181.040 main 690 690 P_______P___P_ SH241994 -24.1019 -179.092 70 1 -23.6474 -178.828 -23.6474 -178.828 72 962 -24.1019 -179.092 TC 70 20 101
1994078S06184 1994 22 SP MM THOMAS:TOMAS 1994-03-26 00:00:00 TS -24.0400 182.107 nadi main 748 748 O_______O___O_ jtwc_sh SH241994 -24.2000 -178.000 65 1 -23.9000 -177.800 -23.9000 -177.800 70 965 -24.2000 -178.000 TC 65 21 100
1994078S06184 1994 22 SP MM THOMAS:TOMAS 1994-03-26 03:00:00 TS -24.2534 183.338 main 841 841 P_______P___P_ SH241994 -24.2588 -176.940 57 0 -24.2664 -176.416 -24.2664 -176.416 65 970 -24.2248 -177.016 TC 57 24 101
1994078S06184 1994 22 SP MM THOMAS:TOMAS 1994-03-26 06:00:00 TS -24.4846 184.654 nadi main 947 947 O_______O___O_ jtwc_sh SH241994 -24.3000 -175.900 50 0 -24.6000 -175.000 -24.6000 -175.000 60 975 -24.3000 -175.900 TC 50 24 101
1994078S06184 1994 22 SP MM THOMAS:TOMAS 1994-03-26 09:00:00 TS -24.6993 185.971 main 1055 1055 ________P___P_ SH241994 -1 -24.7629 -173.861 -24.7629 -173.861 57 977 -24.5722 -174.366 TC 45 24 100
1994078S06184 1994 22 SP MM THOMAS:TOMAS 1994-03-26 12:00:00 TS -24.9000 187.200 nadi main 1161 1161 ________O___O_ -1 -24.9000 -172.800 -24.9000 -172.800 55 980 -24.9000 -172.800 TC 40 21 102
1994078S06184 1994 22 SP MM THOMAS:TOMAS 1994-03-26 15:00:00 TS -25.1302 188.236 main 1254 1254 ________P___P_ -1 -25.1225 -171.677 -25.1217 -171.820 50 983 -25.1425 -171.752 TC 37 21 104
1994078S06184 1994 22 SP MM THOMAS:TOMAS 1994-03-26 18:00:00 TS -25.4000 189.500 45 987 wellington main 1309 1309 ________O___O_ -1 -25.4000 -170.500 -25.4000 -170.500 45 987 -25.4000 -170.500 TC 35 32 101
1994078S06184 1994 22 SP MM THOMAS:TOMAS 1994-03-26 21:00:00 TS -25.7436 191.657 main 1391 1391 ________P___P_ -1 -25.7436 -168.343 40 990 -25.7436 -168.343 TC 32 41 98
1994078S06184 1994 22 SP MM THOMAS:TOMAS 1994-03-27 00:00:00 TS -26.0000 194.000 35 994 wellington main 1509 1509 ________O___O_ -1 -26.0000 -166.000 35 994 -26.0000 -166.000 TC 30 38 95
1994078S06184 1994 22 SP MM THOMAS:TOMAS 1994-03-27 03:00:00 TS -26.0604 195.907 main 1614 1614 ________P___P_ -1 -26.0604 -164.093 30 997 -26.0604 -164.093 TC 27 31 90
1994078S06184 1994 22 SP MM THOMAS:TOMAS 1994-03-27 06:00:00 TS -26.0000 197.500 25 1000 wellington main 1698 ________O___O_ -1 -26.0000 -162.500 25 1000 -26.0000 -162.500 TC 25 29 88

デジタル台風データ・検索

IBTrACS Databaseについて

本データベースは、米国NOAAが公開する1842年以降の世界の熱帯低気圧のベストトラックデータアーカイブInternational Best Track Archive for Climate Stewardship (IBTrACS)を、ウェブで閲覧しやすい形式に変換したものです。

最終更新日:2021-11-26